createdAt,value
2023-02-07T00:08:38.579Z,8.60
2023-02-07T00:12:09.886Z,10.55
2023-02-07T00:16:03.218Z,11.22
2023-02-07T00:19:43.424Z,12.07
2023-02-07T00:23:06.992Z,10.13
2023-02-07T00:30:05.136Z,9.90
2023-02-07T00:33:18.274Z,10.93
2023-02-07T00:36:58.512Z,10.15
2023-02-07T00:41:01.842Z,11.70
2023-02-07T00:44:32.420Z,11.18
2023-02-07T00:47:44.483Z,11.28
2023-02-07T00:54:24.973Z,11.60
2023-02-07T00:58:10.154Z,11.75
2023-02-07T01:01:33.682Z,11.50
2023-02-07T01:04:58.245Z,12.33
2023-02-07T01:08:26.812Z,11.00
2023-02-07T01:15:12.473Z,10.93
2023-02-07T01:22:07.876Z,12.18
2023-02-07T01:29:23.079Z,11.73
2023-02-07T01:32:46.655Z,11.10
2023-02-07T01:36:21.471Z,12.33
2023-02-07T01:43:30.225Z,12.63
2023-02-07T01:46:59.138Z,12.28
2023-02-07T01:50:34.402Z,12.15
2023-02-07T01:53:55.089Z,11.50
2023-02-07T01:57:21.112Z,10.98
2023-02-07T02:00:50.532Z,11.22
2023-02-07T02:05:01.760Z,12.13
2023-02-07T02:08:41.885Z,11.05
2023-02-07T02:12:28.292Z,11.90
2023-02-07T02:16:18.118Z,13.28
2023-02-07T02:19:54.047Z,11.65
2023-02-07T02:23:30.827Z,11.78
2023-02-07T02:31:18.823Z,12.07
2023-02-07T02:38:32.967Z,12.03
2023-02-07T02:41:57.155Z,11.97
2023-02-07T02:45:30.783Z,11.30
2023-02-07T02:48:56.106Z,12.10
2023-02-07T02:52:15.376Z,12.88
2023-02-07T02:55:33.724Z,12.95
2023-02-07T02:59:36.701Z,11.75
2023-02-07T03:03:22.995Z,12.10
2023-02-07T03:07:27.850Z,12.65
2023-02-07T03:10:47.832Z,11.27
2023-02-07T03:14:31.374Z,13.38
2023-02-07T03:18:09.070Z,12.03
2023-02-07T03:21:36.351Z,12.63
2023-02-07T03:28:29.043Z,12.00
2023-02-07T03:31:49.005Z,11.25
2023-02-07T03:35:15.959Z,12.73
2023-02-07T03:38:45.672Z,12.40
2023-02-07T03:45:41.761Z,12.45
2023-02-07T03:49:09.066Z,13.00
2023-02-07T03:52:32.901Z,12.68
2023-02-07T03:56:06.278Z,13.28
2023-02-07T03:59:31.148Z,12.93
2023-02-07T04:02:57.110Z,14.40
2023-02-07T04:06:15.971Z,14.15
2023-02-07T04:12:59.140Z,14.65
2023-02-07T04:16:13.850Z,14.30
2023-02-07T04:19:49.051Z,12.73
2023-02-07T04:26:51.030Z,14.33
2023-02-07T04:30:16.061Z,13.83
2023-02-07T04:33:37.299Z,14.13
2023-02-07T04:40:19.008Z,13.98
2023-02-07T04:43:40.348Z,13.43
2023-02-07T04:47:00.116Z,15.08
2023-02-07T04:50:23.903Z,12.37
2023-02-07T04:53:42.536Z,16.10
2023-02-07T04:56:53.963Z,14.75
2023-02-07T05:00:15.466Z,14.85
2023-02-07T05:03:35.713Z,15.10
2023-02-07T05:07:00.848Z,15.32
2023-02-07T05:13:50.741Z,14.90
2023-02-07T05:20:26.545Z,15.75
2023-02-07T05:23:49.339Z,15.32
2023-02-07T05:27:14.408Z,15.98
2023-02-07T05:30:38.570Z,15.78
2023-02-07T05:34:02.914Z,15.88
2023-02-07T05:37:19.290Z,16.20
2023-02-07T05:40:38.331Z,16.48
2023-02-07T05:44:03.026Z,14.98
2023-02-07T05:47:23.709Z,17.82
2023-02-07T05:50:37.534Z,17.62
2023-02-07T05:54:28.347Z,21.33
2023-02-07T06:05:05.281Z,25.12
2023-02-07T06:30:04.125Z,25.85
2023-02-07T06:33:13.785Z,24.55
2023-02-07T09:07:57.661Z,11.85
2023-02-07T09:25:29.127Z,12.55
2023-02-07T09:29:02.931Z,11.90
2023-02-07T09:50:26.351Z,14.05
2023-02-07T09:53:50.629Z,12.80
2023-02-07T10:00:44.319Z,12.35
2023-02-07T10:52:00.166Z,17.10
2023-02-07T10:55:21.555Z,15.50
2023-02-07T10:58:45.737Z,14.45
2023-02-07T11:02:21.990Z,17.62
2023-02-07T11:05:49.203Z,17.73
2023-02-07T11:09:46.575Z,15.70
2023-02-07T11:13:29.915Z,15.03
2023-02-07T11:16:47.849Z,15.83
2023-02-07T11:20:14.267Z,15.63
2023-02-07T11:23:43.720Z,16.40
2023-02-07T11:34:32.505Z,14.03
2023-02-07T11:42:00.880Z,12.20
2023-02-07T11:53:07.787Z,17.90
2023-02-07T12:57:18.796Z,14.35
2023-02-07T13:09:25.036Z,13.68
2023-02-07T13:52:28.029Z,14.95
2023-02-07T14:26:56.685Z,16.15
2023-02-07T14:30:33.274Z,22.45
2023-02-07T14:39:26.584Z,15.50
2023-02-07T14:43:11.206Z,14.35
2023-02-07T14:47:14.961Z,15.93
2023-02-07T14:50:58.296Z,17.07
2023-02-07T14:54:57.098Z,14.87
2023-02-07T15:02:00.033Z,18.90
2023-02-07T15:05:57.729Z,17.48
2023-02-07T15:09:21.572Z,16.55
2023-02-07T15:16:28.397Z,16.48
2023-02-07T15:20:04.234Z,15.18
2023-02-07T15:23:39.284Z,16.77
2023-02-07T15:27:20.145Z,16.05
2023-02-07T15:30:54.375Z,15.63
2023-02-07T15:38:08.745Z,16.52
2023-02-07T15:41:31.886Z,15.20
2023-02-07T15:45:08.544Z,13.80
2023-02-07T15:48:27.780Z,20.23
2023-02-07T15:51:53.711Z,17.53
2023-02-07T15:59:36.159Z,20.32
2023-02-07T16:11:51.815Z,24.85
2023-02-07T16:15:35.358Z,22.45
2023-02-07T16:19:57.102Z,24.82
2023-02-07T16:27:02.717Z,24.12
2023-02-07T16:44:26.756Z,24.85
2023-02-07T16:47:55.966Z,22.77
2023-02-07T16:56:15.892Z,17.60
2023-02-07T16:59:45.811Z,21.48
2023-02-07T17:03:10.200Z,17.05
2023-02-07T17:06:38.062Z,16.87
2023-02-07T17:13:46.937Z,15.70
2023-02-07T17:17:07.231Z,14.10
2023-02-07T17:20:29.779Z,17.35
2023-02-07T17:24:21.172Z,15.58
2023-02-07T17:42:12.417Z,13.60
2023-02-07T17:45:32.612Z,14.45
2023-02-07T17:49:03.046Z,13.72
2023-02-07T17:52:27.956Z,15.15
2023-02-07T18:03:11.141Z,15.28
2023-02-07T18:10:33.410Z,13.78
2023-02-07T18:14:11.442Z,13.78
2023-02-07T18:17:30.075Z,15.63
2023-02-07T18:20:53.955Z,13.88
2023-02-07T18:24:31.334Z,13.05
2023-02-07T22:41:10.952Z,30.90
2023-02-07T22:49:56.771Z,28.60
2023-02-07T22:57:34.716Z,32.63
2023-02-07T23:01:01.865Z,32.58
2023-02-07T23:04:29.874Z,30.70
2023-02-07T23:11:47.330Z,29.57
2023-02-07T23:15:08.449Z,27.22
2023-02-07T23:18:38.485Z,31.00
2023-02-07T23:21:56.007Z,28.80
2023-02-07T23:25:17.433Z,27.22
2023-02-07T23:28:48.650Z,27.67
2023-02-07T23:32:17.793Z,26.42
2023-02-07T23:35:53.609Z,27.98
2023-02-07T23:39:11.382Z,29.00
2023-02-07T23:45:53.057Z,24.92
2023-02-07T23:49:11.558Z,29.02
2023-02-07T23:52:25.715Z,29.45
2023-02-07T23:55:47.139Z,26.57
2023-02-07T23:59:08.052Z,24.85
